Time;durP1;ratioP1;P1;durP2;ratioP2;P2;SDS_P1;SDS_P2;PMS_P1;PMS_P2;Temp;Humidity;BMP_temperature;BMP_pressure;BME280_temperature;BME280_humidity;BME280_pressure;Samples;Min_cycle;Max_cycle;Signal;HPM_P1;HPM_P2
2022/09/07 00:02:06;;;;;;;;;;;;;;;;;;5086507;28;20334;-66
2022/09/07 00:04:31;;;;;;;;;;;;;;;;;;5089754;28;20291;-66
2022/09/07 00:06:56;;;;;;;;;;;;;;;;;;5087904;28;19912;-66
2022/09/07 00:09:21;;;;;;;;;;;;;;;;;;5085000;28;19927;-66
2022/09/07 00:11:46;;;;;;;;;;;;;;;;;;5087980;28;20383;-66
2022/09/07 00:14:11;;;;;;;;;;;;;;;;;;5090447;28;20356;-66
2022/09/07 00:16:36;;;;;;;;;;;;;;;;;;5088346;28;19912;-66
2022/09/07 00:19:02;;;;;;;;;;;;;;;;;;5090038;28;19947;-66
2022/09/07 00:21:27;;;;;;;;;;;;;;;;;;5086561;28;20266;-66
2022/09/07 00:23:52;;;;;;;;;;;;;;;;;;5091583;28;20387;-66
2022/09/07 00:26:17;;;;;;;;;;;;;;;;;;5087907;28;19951;-66
2022/09/07 00:28:42;;;;;;;;;;;;;;;;;;5089136;28;20295;-66
2022/09/07 00:31:07;;;;;;;;;;;;;;;;;;5086857;28;19947;-66
2022/09/07 00:33:32;;;;;;;;;;;;;;;;;;5088624;28;20272;-66
2022/09/07 00:35:58;;;;;;;;;;;;;;;;;;5089059;28;20280;-66
2022/09/07 00:38:23;;;;;;;;;;;;;;;;;;5086396;28;19944;-66
2022/09/07 00:40:48;;;;;;;;;;;;;;;;;;5087028;28;19912;-66
2022/09/07 00:43:13;;;;;;;;;;;;;;;;;;5090095;28;19904;-66
2022/09/07 00:45:38;;;;;;;;;;;;;;;;;;5088614;28;19916;-66
2022/09/07 00:48:03;;;;;;;;;;;;;;;;;;5088058;28;19908;-66
2022/09/07 00:50:28;;;;;;;;;;;;;;;;;;5087301;28;19962;-66
2022/09/07 00:52:54;;;;;;;;;;;;;;;;;;5087521;28;19931;-66
2022/09/07 00:55:19;;;;;;;;;;;;;;;;;;5090172;28;19908;-66
2022/09/07 00:57:44;;;;;;;;;;;;;;;;;;5087639;28;19918;-66
2022/09/07 01:00:09;;;;;;;;;;;;;;;;;;5087317;28;20057;-66
2022/09/07 01:02:34;;;;;;;;;;;;;;;;;;5086467;28;20002;-66
2022/09/07 01:05:00;;;;;;;;;;;;;;;;;;5087851;28;19994;-66
2022/09/07 01:07:25;;;;;;;;;;;;;;;;;;5085778;28;19973;-66
2022/09/07 01:09:50;;;;;;;;;;;;;;;;;;5088341;28;19916;-66
2022/09/07 01:12:15;;;;;;;;;;;;;;;;;;5088997;28;19904;-66
2022/09/07 01:14:40;;;;;;;;;;;;;;;;;;5087939;28;20451;-66
2022/09/07 01:17:05;;;;;;;;;;;;;;;;;;5086031;28;20433;-66
2022/09/07 01:19:30;;;;;;;;;;;;;;;;;;5088437;28;20696;-66
2022/09/07 01:21:55;;;;;;;;;;;;;;;;;;5090000;28;19907;-66
2022/09/07 01:24:20;;;;;;;;;;;;;;;;;;5089032;28;19951;-67
2022/09/07 01:26:46;;;;;;;;;;;;;;;;;;5086053;28;19957;-66
2022/09/07 01:29:11;;;;;;;;;;;;;;;;;;5087450;28;19912;-66
2022/09/07 01:31:36;;;;;;;;;;;;;;;;;;5086686;28;19916;-66
2022/09/07 01:34:01;;;;;;;;;;;;;;;;;;5087025;28;20278;-66
2022/09/07 01:36:26;;;;;;;;;;;;;;;;;;5084429;28;19908;-66
2022/09/07 01:38:51;;;;;;;;;;;;;;;;;;5088555;28;19918;-66
2022/09/07 01:41:17;;;;;;;;;;;;;;;;;;5087072;28;19962;-66
2022/09/07 01:43:42;;;;;;;;;;;;;;;;;;5089824;28;20348;-66
2022/09/07 01:46:07;;;;;;;;;;;;;;;;;;5087118;28;19950;-65
2022/09/07 01:48:32;;;;;;;;;;;;;;;;;;5088323;28;19911;-66
2022/09/07 01:50:57;;;;;;;;;;;;;;;;;;5089656;28;19915;-66
2022/09/07 01:53:22;;;;;;;;;;;;;;;;;;5088516;28;19919;-66
2022/09/07 01:55:47;;;;;;;;;;;;;;;;;;5087878;28;20292;-66
2022/09/07 01:58:13;;;;;;;;;;;;;;;;;;5087369;28;19953;-66
2022/09/07 02:00:38;;;;;;;;;;;;;;;;;;5086696;28;20336;-66
2022/09/07 02:03:03;;;;;;;;;;;;;;;;;;5089798;28;19904;-66
2022/09/07 02:05:28;;;;;;;;;;;;;;;;;;5086089;28;20035;-66
2022/09/07 02:07:53;;;;;;;;;;;;;;;;;;5086596;28;20014;-66
2022/09/07 02:10:18;;;;;;;;;;;;;;;;;;5086840;28;20349;-65
2022/09/07 02:12:43;;;;;;;;;;;;;;;;;;5088242;28;19904;-65
2022/09/07 02:15:09;;;;;;;;;;;;;;;;;;5087489;28;19935;-65
2022/09/07 02:17:34;;;;;;;;;;;;;;;;;;5091193;28;19919;-65
2022/09/07 02:20:02;;;;;;;;;;;;;;;;;;5088914;28;20591;-64
2022/09/07 02:22:27;;;;;;;;;;;;;;;;;;5091150;28;19918;-65
2022/09/07 02:24:53;;;;;;;;;;;;;;;;;;5092644;28;19903;-65
2022/09/07 02:27:18;;;;;;;;;;;;;;;;;;5092097;28;19915;-65
2022/09/07 02:29:43;;;;;;;;;;;;;;;;;;5090059;28;20371;-65
2022/09/07 02:32:08;;;;;;;;;;;;;;;;;;5090887;28;19911;-65
2022/09/07 02:34:33;;;;;;;;;;;;;;;;;;5091705;28;19915;-65
2022/09/07 02:36:58;;;;;;;;;;;;;;;;;;5089791;28;19912;-65
2022/09/07 02:39:23;;;;;;;;;;;;;;;;;;5089463;28;19915;-65
2022/09/07 02:41:48;;;;;;;;;;;;;;;;;;5091253;28;19909;-66
2022/09/07 02:44:14;;;;;;;;;;;;;;;;;;5087564;28;19908;-66
2022/09/07 02:46:39;;;;;;;;;;;;;;;;;;5086742;28;19958;-66
2022/09/07 02:49:04;;;;;;;;;;;;;;;;;;5091946;28;19912;-66
2022/09/07 02:51:29;;;;;;;;;;;;;;;;;;5088885;28;19912;-66
2022/09/07 02:53:54;;;;;;;;;;;;;;;;;;5092322;28;19907;-66
2022/09/07 02:56:19;;;;;;;;;;;;;;;;;;5088271;28;19915;-66
2022/09/07 02:58:44;;;;;;;;;;;;;;;;;;5092157;28;19962;-66
2022/09/07 03:01:09;;;;;;;;;;;;;;;;;;5086906;28;19908;-66
2022/09/07 03:03:36;;;;;;;;;;;;;;;;;;5092794;28;19926;-66
2022/09/07 03:06:01;;;;;;;;;;;;;;;;;;5086267;28;19966;-66
2022/09/07 03:08:26;;;;;;;;;;;;;;;;;;5092142;28;20341;-66
2022/09/07 03:10:51;;;;;;;;;;;;;;;;;;5090383;28;20291;-66
2022/09/07 03:13:16;;;;;;;;;;;;;;;;;;5091601;28;19915;-66
2022/09/07 03:15:41;;;;;;;;;;;;;;;;;;5089920;28;19981;-66
2022/09/07 03:18:06;;;;;;;;;;;;;;;;;;5091113;28;19976;-66
2022/09/07 03:20:31;;;;;;;;;;;;;;;;;;5088694;28;19983;-65
2022/09/07 03:22:57;;;;;;;;;;;;;;;;;;5091860;28;20540;-66
2022/09/07 03:25:22;;;;;;;;;;;;;;;;;;5092266;28;19908;-65
2022/09/07 03:27:47;;;;;;;;;;;;;;;;;;5089650;28;19912;-66
2022/09/07 03:30:12;;;;;;;;;;;;;;;;;;5087524;28;19961;-66
2022/09/07 03:32:37;;;;;;;;;;;;;;;;;;5070932;28;19904;-65
2022/09/07 03:35:02;;;;;;;;;;;;;;;;;;5086703;28;19958;-66
2022/09/07 03:37:27;;;;;;;;;;;;;;;;;;5091607;28;19911;-65
2022/09/07 03:39:52;;;;;;;;;;;;;;;;;;5087295;28;19919;-66
2022/09/07 03:42:18;;;;;;;;;;;;;;;;;;5091069;28;20364;-66
2022/09/07 03:44:43;;;;;;;;;;;;;;;;;;5084778;28;19912;-65
2022/09/07 03:47:08;;;;;;;;;;;;;;;;;;5090008;28;20281;-65
2022/09/07 03:49:33;;;;;;;;;;;;;;;;;;5088237;28;19920;-65
2022/09/07 03:51:58;;;;;;;;;;;;;;;;;;5090590;28;19999;-66
2022/09/07 03:54:23;;;;;;;;;;;;;;;;;;5088489;28;19908;-65
2022/09/07 03:56:48;;;;;;;;;;;;;;;;;;5087367;28;19913;-66
2022/09/07 03:59:13;;;;;;;;;;;;;;;;;;5091920;28;19919;-65
2022/09/07 04:01:39;;;;;;;;;;;;;;;;;;5086545;28;20002;-65
2022/09/07 04:04:04;;;;;;;;;;;;;;;;;;5086531;28;19912;-65
2022/09/07 04:06:29;;;;;;;;;;;;;;;;;;5085726;28;19916;-65
2022/09/07 04:08:57;;;;;;;;;;;;;;;;;;5089459;28;20556;-65
2022/09/07 04:11:22;;;;;;;;;;;;;;;;;;5089064;28;19912;-65
2022/09/07 04:13:47;;;;;;;;;;;;;;;;;;5090604;28;20378;-65
2022/09/07 04:16:13;;;;;;;;;;;;;;;;;;5087413;28;19916;-65
2022/09/07 04:18:38;;;;;;;;;;;;;;;;;;5091019;28;19929;-65
2022/09/07 04:21:03;;;;;;;;;;;;;;;;;;5087716;28;20398;-65
2022/09/07 04:23:28;;;;;;;;;;;;;;;;;;5087975;28;20352;-65
2022/09/07 04:25:53;;;;;;;;;;;;;;;;;;5089651;28;20356;-65
2022/09/07 04:28:18;;;;;;;;;;;;;;;;;;5089565;28;19961;-66
2022/09/07 04:30:43;;;;;;;;;;;;;;;;;;5085563;28;19908;-65
2022/09/07 04:33:08;;;;;;;;;;;;;;;;;;5087541;28;19904;-65
2022/09/07 04:35:34;;;;;;;;;;;;;;;;;;5087322;28;20304;-65
2022/09/07 04:37:59;;;;;;;;;;;;;;;;;;5088860;28;19908;-66
2022/09/07 04:40:24;;;;;;;;;;;;;;;;;;5087522;28;19973;-66
2022/09/07 04:42:49;;;;;;;;;;;;;;;;;;5090360;28;19957;-65
2022/09/07 04:45:14;;;;;;;;;;;;;;;;;;5082887;28;19908;-66
2022/09/07 04:47:39;;;;;;;;;;;;;;;;;;5086820;28;19923;-66
2022/09/07 04:50:04;;;;;;;;;;;;;;;;;;5084553;28;19915;-66
2022/09/07 04:52:29;;;;;;;;;;;;;;;;;;5088120;28;19911;-66
2022/09/07 04:54:55;;;;;;;;;;;;;;;;;;5091048;28;19912;-66
2022/09/07 04:57:23;;;;;;;;;;;;;;;;;;5089526;28;19945;-66
2022/09/07 04:59:48;;;;;;;;;;;;;;;;;;5087897;28;19945;-66
2022/09/07 05:02:13;;;;;;;;;;;;;;;;;;5086929;28;19908;-66
2022/09/07 05:04:38;;;;;;;;;;;;;;;;;;5086042;28;19912;-66
2022/09/07 05:07:03;;;;;;;;;;;;;;;;;;5087724;28;19915;-66
2022/09/07 05:09:29;;;;;;;;;;;;;;;;;;5088283;28;19908;-66
2022/09/07 05:11:54;;;;;;;;;;;;;;;;;;5089254;28;20316;-66
2022/09/07 05:14:19;;;;;;;;;;;;;;;;;;5086965;28;19918;-66
2022/09/07 05:16:44;;;;;;;;;;;;;;;;;;5089125;28;20352;-66
2022/09/07 05:19:09;;;;;;;;;;;;;;;;;;5085117;28;20352;-66
2022/09/07 05:21:35;;;;;;;;;;;;;;;;;;5090287;28;19904;-66
2022/09/07 05:24:00;;;;;;;;;;;;;;;;;;5086983;28;19922;-66
2022/09/07 05:26:25;;;;;;;;;;;;;;;;;;5085084;28;19908;-66
2022/09/07 05:28:51;;;;;;;;;;;;;;;;;;5089521;28;19912;-67
2022/09/07 05:31:16;;;;;;;;;;;;;;;;;;5089146;28;19908;-66
2022/09/07 05:33:41;;;;;;;;;;;;;;;;;;5085733;28;20356;-66
2022/09/07 05:36:06;;;;;;;;;;;;;;;;;;5086211;28;19957;-66
2022/09/07 05:38:31;;;;;;;;;;;;;;;;;;5085901;28;19918;-65
2022/09/07 05:40:57;;;;;;;;;;;;;;;;;;5082096;28;19916;-66
2022/09/07 05:43:23;;;;;;;;;;;;;;;;;;5082475;28;20015;-65
2022/09/07 05:45:48;;;;;;;;;;;;;;;;;;5081642;28;19912;-66
2022/09/07 05:48:13;;;;;;;;;;;;;;;;;;5083107;28;19916;-65
2022/09/07 05:50:38;;;;;;;;;;;;;;;;;;5087632;28;19971;-66
2022/09/07 05:53:03;;;;;;;;;;;;;;;;;;5092294;28;19996;-65
2022/09/07 05:55:28;;;;;;;;;;;;;;;;;;5091109;28;21470;-66
2022/09/07 05:57:53;;;;;;;;;;;;;;;;;;5088836;28;19908;-66
2022/09/07 06:00:20;;;;;;;;;;;;;;;;;;5091449;28;19908;-66
2022/09/07 06:02:45;;;;;;;;;;;;;;;;;;5090040;28;20321;-66
2022/09/07 06:05:10;;;;;;;;;;;;;;;;;;5087581;28;20403;-66
2022/09/07 06:07:35;;;;;;;;;;;;;;;;;;5083130;28;19919;-66
2022/09/07 06:10:00;;;;;;;;;;;;;;;;;;5087452;28;19904;-66
2022/09/07 06:12:26;;;;;;;;;;;;;;;;;;5093379;28;19904;-66
2022/09/07 06:14:51;;;;;;;;;;;;;;;;;;5093551;28;19904;-65
2022/09/07 06:17:16;;;;;;;;;;;;;;;;;;5093196;28;19951;-65
2022/09/07 06:19:41;;;;;;;;;;;;;;;;;;5092571;28;19911;-65
2022/09/07 06:22:06;;;;;;;;;;;;;;;;;;5093882;28;19911;-66
2022/09/07 06:24:31;;;;;;;;;;;;;;;;;;5093709;28;19904;-65
2022/09/07 06:26:56;;;;;;;;;;;;;;;;;;5093056;28;19904;-65
2022/09/07 06:29:21;;;;;;;;;;;;;;;;;;5092901;28;20121;-66
2022/09/07 06:31:47;;;;;;;;;;;;;;;;;;5093523;28;20033;-66
2022/09/07 06:34:12;;;;;;;;;;;;;;;;;;5093827;28;20280;-66
2022/09/07 06:36:37;;;;;;;;;;;;;;;;;;5088757;28;19904;-66
2022/09/07 06:39:02;;;;;;;;;;;;;;;;;;5093022;28;19912;-66
2022/09/07 06:41:27;;;;;;;;;;;;;;;;;;5093226;28;19904;-65
2022/09/07 06:43:53;;;;;;;;;;;;;;;;;;5093448;28;19904;-66
2022/09/07 06:46:18;;;;;;;;;;;;;;;;;;5092457;28;20343;-66
2022/09/07 06:48:43;;;;;;;;;;;;;;;;;;5092236;28;19908;-66
2022/09/07 06:51:08;;;;;;;;;;;;;;;;;;5092297;28;19912;-66
2022/09/07 06:53:33;;;;;;;;;;;;;;;;;;5093169;28;19912;-65
2022/09/07 06:55:58;;;;;;;;;;;;;;;;;;5092567;28;19990;-66
2022/09/07 06:58:24;;;;;;;;;;;;;;;;;;5092357;28;20632;-66
2022/09/07 07:00:49;;;;;;;;;;;;;;;;;;5092028;28;19994;-66
2022/09/07 07:03:14;;;;;;;;;;;;;;;;;;5092058;28;20275;-66
2022/09/07 07:05:40;;;;;;;;;;;;;;;;;;5091899;28;20010;-67
2022/09/07 07:08:05;;;;;;;;;;;;;;;;;;5091713;28;19908;-67
2022/09/07 07:10:32;;;;;;;;;;;;;;;;;;5091776;28;19920;-67
2022/09/07 07:12:57;;;;;;;;;;;;;;;;;;5092759;28;19911;-67
2022/09/07 07:15:22;;;;;;;;;;;;;;;;;;5092816;28;20249;-67
2022/09/07 07:17:47;;;;;;;;;;;;;;;;;;5092189;28;19912;-67
2022/09/07 07:20:12;;;;;;;;;;;;;;;;;;5091714;28;19904;-66
2022/09/07 07:22:38;;;;;;;;;;;;;;;;;;5092766;28;19914;-67
2022/09/07 07:25:03;;;;;;;;;;;;;;;;;;5092595;28;19918;-67
2022/09/07 07:27:28;;;;;;;;;;;;;;;;;;5091879;28;19988;-67
2022/09/07 07:29:53;;;;;;;;;;;;;;;;;;5091623;28;20352;-67
2022/09/07 07:32:18;;;;;;;;;;;;;;;;;;5092588;28;19911;-67
2022/09/07 07:34:43;;;;;;;;;;;;;;;;;;5092195;28;20377;-67
2022/09/07 07:37:09;;;;;;;;;;;;;;;;;;5091698;28;19911;-67
2022/09/07 07:39:34;;;;;;;;;;;;;;;;;;5092606;28;19911;-67
2022/09/07 07:41:59;;;;;;;;;;;;;;;;;;5092040;28;19915;-67
2022/09/07 07:44:24;;;;;;;;;;;;;;;;;;5092310;28;19915;-67
2022/09/07 07:46:49;;;;;;;;;;;;;;;;;;5091996;28;19904;-67
2022/09/07 07:49:14;;;;;;;;;;;;;;;;;;5091654;28;19912;-67
2022/09/07 07:51:40;;;;;;;;;;;;;;;;;;5091981;28;19908;-66
2022/09/07 07:54:05;;;;;;;;;;;;;;;;;;5092216;28;20629;-67
2022/09/07 07:56:30;;;;;;;;;;;;;;;;;;5091623;28;20360;-67
2022/09/07 07:58:55;;;;;;;;;;;;;;;;;;5091479;28;20261;-67
2022/09/07 08:01:20;;;;;;;;;;;;;;;;;;5091049;28;19908;-67
2022/09/07 08:03:48;;;;;;;;;;;;;;;;;;5093602;28;20002;-67
2022/09/07 08:06:13;;;;;;;;;;;;;;;;;;5091459;28;19922;-67
2022/09/07 08:08:38;;;;;;;;;;;;;;;;;;5090956;28;19991;-66
2022/09/07 08:11:07;;;;;;;;;;;;;;;;;;5091177;28;19958;-67
2022/09/07 08:13:32;;;;;;;;;;;;;;;;;;5091134;28;19947;-67
2022/09/07 08:15:58;;;;;;;;;;;;;;;;;;5091343;28;19954;-67
2022/09/07 08:18:23;;;;;;;;;;;;;;;;;;5091151;28;19908;-66
2022/09/07 08:20:48;;;;;;;;;;;;;;;;;;5090991;28;19908;-67
2022/09/07 08:23:14;;;;;;;;;;;;;;;;;;5091790;28;19947;-67
2022/09/07 08:25:39;;;;;;;;;;;;;;;;;;5091370;28;19908;-67
2022/09/07 08:28:04;;;;;;;;;;;;;;;;;;5090632;28;19923;-66
2022/09/07 08:30:29;;;;;;;;;;;;;;;;;;5091165;28;20260;-66
2022/09/07 08:32:55;;;;;;;;;;;;;;;;;;5091404;28;19911;-66
2022/09/07 08:35:20;;;;;;;;;;;;;;;;;;5090997;28;20299;-66
2022/09/07 08:37:45;;;;;;;;;;;;;;;;;;5090467;28;20340;-66
2022/09/07 08:40:10;;;;;;;;;;;;;;;;;;5090239;28;19919;-66
2022/09/07 08:42:35;;;;;;;;;;;;;;;;;;5091351;28;19915;-67
2022/09/07 08:45:00;;;;;;;;;;;;;;;;;;5091471;28;19957;-66
2022/09/07 08:47:26;;;;;;;;;;;;;;;;;;5090300;28;20355;-66
2022/09/07 08:49:51;;;;;;;;;;;;;;;;;;5090251;28;19994;-66
2022/09/07 08:52:16;;;;;;;;;;;;;;;;;;5090306;28;19961;-66
2022/09/07 08:54:41;;;;;;;;;;;;;;;;;;5091136;28;19913;-66
2022/09/07 08:57:06;;;;;;;;;;;;;;;;;;5090282;28;19908;-66
2022/09/07 08:59:32;;;;;;;;;;;;;;;;;;5090298;28;19932;-66
2022/09/07 09:01:57;;;;;;;;;;;;;;;;;;5090610;28;19942;-67
2022/09/07 09:04:22;;;;;;;;;;;;;;;;;;5090688;28;19912;-66
2022/09/07 09:06:47;;;;;;;;;;;;;;;;;;5089712;28;19908;-66
2022/09/07 09:09:12;;;;;;;;;;;;;;;;;;5092354;28;20034;-66
2022/09/07 09:11:37;;;;;;;;;;;;;;;;;;5090676;28;19950;-66
2022/09/07 09:14:02;;;;;;;;;;;;;;;;;;5090587;28;19904;-66
2022/09/07 09:16:27;;;;;;;;;;;;;;;;;;5087618;28;19999;-66
2022/09/07 09:18:53;;;;;;;;;;;;;;;;;;5090088;28;19904;-67
2022/09/07 09:21:18;;;;;;;;;;;;;;;;;;5090141;28;19912;-66
2022/09/07 09:23:43;;;;;;;;;;;;;;;;;;5090145;28;20014;-66
2022/09/07 09:26:08;;;;;;;;;;;;;;;;;;5089515;28;19987;-66
2022/09/07 09:28:33;;;;;;;;;;;;;;;;;;5090164;28;19962;-66
2022/09/07 09:30:58;;;;;;;;;;;;;;;;;;5089894;28;20487;-67
2022/09/07 09:33:24;;;;;;;;;;;;;;;;;;5090232;28;19998;-66
2022/09/07 09:35:50;;;;;;;;;;;;;;;;;;5090565;28;20175;-65
2022/09/07 09:38:15;;;;;;;;;;;;;;;;;;5089505;28;19910;-66
2022/09/07 09:40:40;;;;;;;;;;;;;;;;;;5089935;28;20057;-66
2022/09/07 09:43:05;;;;;;;;;;;;;;;;;;5090307;28;19947;-66
2022/09/07 09:45:30;;;;;;;;;;;;;;;;;;5090235;28;20268;-66
2022/09/07 09:47:55;;;;;;;;;;;;;;;;;;5090879;28;19908;-66
2022/09/07 09:50:21;;;;;;;;;;;;;;;;;;5089814;28;19912;-66
2022/09/07 09:52:46;;;;;;;;;;;;;;;;;;5090369;28;20263;-65
2022/09/07 09:55:12;;;;;;;;;;;;;;;;;;5090463;28;19914;-66
2022/09/07 09:57:37;;;;;;;;;;;;;;;;;;5089976;28;19912;-66
2022/09/07 10:00:02;;;;;;;;;;;;;;;;;;5090369;28;19916;-66
2022/09/07 10:02:27;;;;;;;;;;;;;;;;;;5089446;28;19994;-66
2022/09/07 10:04:52;;;;;;;;;;;;;;;;;;5089409;28;19916;-66
2022/09/07 10:07:17;;;;;;;;;;;;;;;;;;5088663;28;19912;-66
2022/09/07 10:09:42;;;;;;;;;;;;;;;;;;5088908;28;20025;-66
2022/09/07 10:12:08;;;;;;;;;;;;;;;;;;5087278;28;19906;-66
2022/09/07 10:14:33;;;;;;;;;;;;;;;;;;5089998;28;19957;-66
2022/09/07 10:16:58;;;;;;;;;;;;;;;;;;5088383;28;20277;-66
2022/09/07 10:19:23;;;;;;;;;;;;;;;;;;5088807;28;19919;-66
2022/09/07 10:21:48;;;;;;;;;;;;;;;;;;5089577;28;19904;-66
2022/09/07 10:24:13;;;;;;;;;;;;;;;;;;5089908;28;19904;-66
2022/09/07 10:26:38;;;;;;;;;;;;;;;;;;5089136;28;19904;-66
2022/09/07 10:29:03;;;;;;;;;;;;;;;;;;5070897;28;19911;-66
2022/09/07 10:31:30;;;;;;;;;;;;;;;;;;5088952;28;19927;-66
2022/09/07 10:33:55;;;;;;;;;;;;;;;;;;5089480;28;19947;-66
2022/09/07 10:36:20;;;;;;;;;;;;;;;;;;5091419;28;19978;-66
2022/09/07 10:38:45;;;;;;;;;;;;;;;;;;5092908;28;19911;-66
2022/09/07 10:41:11;;;;;;;;;;;;;;;;;;5093039;28;19912;-66
2022/09/07 10:43:36;;;;;;;;;;;;;;;;;;5093670;28;20280;-66
2022/09/07 10:46:01;;;;;;;;;;;;;;;;;;5092592;28;19912;-66
2022/09/07 10:48:26;;;;;;;;;;;;;;;;;;5092526;28;20290;-66
2022/09/07 10:50:51;;;;;;;;;;;;;;;;;;5092319;28;20150;-66
2022/09/07 10:53:16;;;;;;;;;;;;;;;;;;5093223;28;19908;-66
2022/09/07 10:55:41;;;;;;;;;;;;;;;;;;5092625;28;19904;-66
2022/09/07 10:58:06;;;;;;;;;;;;;;;;;;5092762;28;19919;-66
2022/09/07 11:00:32;;;;;;;;;;;;;;;;;;5092948;28;19962;-67
2022/09/07 11:02:57;;;;;;;;;;;;;;;;;;5093165;28;19908;-66
2022/09/07 11:05:22;;;;;;;;;;;;;;;;;;5092870;28;20315;-66
2022/09/07 11:07:47;;;;;;;;;;;;;;;;;;5092160;28;20749;-66
2022/09/07 11:10:12;;;;;;;;;;;;;;;;;;5092497;28;19911;-66
2022/09/07 11:12:37;;;;;;;;;;;;;;;;;;5091674;28;19915;-66
2022/09/07 11:15:03;;;;;;;;;;;;;;;;;;5093140;28;20261;-67
2022/09/07 11:17:28;;;;;;;;;;;;;;;;;;5092411;28;19908;-66
2022/09/07 11:19:53;;;;;;;;;;;;;;;;;;5092097;28;19911;-66
2022/09/07 11:22:18;;;;;;;;;;;;;;;;;;5092729;28;19911;-66
2022/09/07 11:24:43;;;;;;;;;;;;;;;;;;5092736;28;20272;-66
2022/09/07 11:27:09;;;;;;;;;;;;;;;;;;5092371;28;19908;-67
2022/09/07 11:29:34;;;;;;;;;;;;;;;;;;5092256;28;19908;-67
2022/09/07 11:31:59;;;;;;;;;;;;;;;;;;5092628;28;19947;-67
2022/09/07 11:34:27;;;;;;;;;;;;;;;;;;5093305;28;19908;-67
2022/09/07 11:36:52;;;;;;;;;;;;;;;;;;5091842;28;19949;-66
2022/09/07 11:39:17;;;;;;;;;;;;;;;;;;5092056;28;19908;-66
2022/09/07 11:41:43;;;;;;;;;;;;;;;;;;5091727;28;19919;-66
2022/09/07 11:44:10;;;;;;;;;;;;;;;;;;5092330;28;20311;-66
2022/09/07 11:46:35;;;;;;;;;;;;;;;;;;5091617;28;19987;-66
2022/09/07 11:49:01;;;;;;;;;;;;;;;;;;5092792;28;19916;-66
2022/09/07 11:51:26;;;;;;;;;;;;;;;;;;5092082;28;19965;-66
2022/09/07 11:53:51;;;;;;;;;;;;;;;;;;5092510;28;20307;-66
2022/09/07 11:56:16;;;;;;;;;;;;;;;;;;5092532;28;19961;-66
2022/09/07 11:58:41;;;;;;;;;;;;;;;;;;5090457;28;20272;-66
2022/09/07 12:01:06;;;;;;;;;;;;;;;;;;5091734;28;19908;-66
2022/09/07 12:03:32;;;;;;;;;;;;;;;;;;5091842;28;20037;-67
2022/09/07 12:05:57;;;;;;;;;;;;;;;;;;5091396;28;19987;-66
2022/09/07 12:08:22;;;;;;;;;;;;;;;;;;5090899;28;20073;-66
2022/09/07 12:10:47;;;;;;;;;;;;;;;;;;5091486;28;19954;-66
2022/09/07 12:13:12;;;;;;;;;;;;;;;;;;5090849;28;19911;-66
2022/09/07 12:15:37;;;;;;;;;;;;;;;;;;5091159;28;19915;-66
2022/09/07 12:18:02;;;;;;;;;;;;;;;;;;5091187;28;20264;-66
2022/09/07 12:20:27;;;;;;;;;;;;;;;;;;5091123;28;19904;-66
2022/09/07 12:22:52;;;;;;;;;;;;;;;;;;5091414;28;19911;-66
2022/09/07 12:25:18;;;;;;;;;;;;;;;;;;5092702;28;20002;-66
2022/09/07 12:27:43;;;;;;;;;;;;;;;;;;5091071;28;20516;-66
2022/09/07 12:30:08;;;;;;;;;;;;;;;;;;5090769;28;19987;-66
2022/09/07 12:32:33;;;;;;;;;;;;;;;;;;5091110;28;19910;-66
2022/09/07 12:34:58;;;;;;;;;;;;;;;;;;5091483;28;19947;-66
2022/09/07 12:37:23;;;;;;;;;;;;;;;;;;5090692;28;19908;-66
2022/09/07 12:39:49;;;;;;;;;;;;;;;;;;5090323;28;19908;-67
2022/09/07 12:42:14;;;;;;;;;;;;;;;;;;5091225;28;20318;-67
2022/09/07 12:44:39;;;;;;;;;;;;;;;;;;5091440;28;20326;-67
2022/09/07 12:47:04;;;;;;;;;;;;;;;;;;5090869;28;20408;-67
2022/09/07 12:49:29;;;;;;;;;;;;;;;;;;5090165;28;20007;-67
2022/09/07 12:51:54;;;;;;;;;;;;;;;;;;5090816;28;19951;-67
2022/09/07 12:54:19;;;;;;;;;;;;;;;;;;5091347;28;19904;-67
2022/09/07 12:56:44;;;;;;;;;;;;;;;;;;5090399;28;19930;-66
2022/09/07 12:59:09;;;;;;;;;;;;;;;;;;5090159;28;20317;-67
2022/09/07 13:01:35;;;;;;;;;;;;;;;;;;5090218;28;19908;-67
2022/09/07 13:04:00;;;;;;;;;;;;;;;;;;5090535;28;19931;-67
2022/09/07 13:06:25;;;;;;;;;;;;;;;;;;5090135;28;20052;-67
2022/09/07 13:08:50;;;;;;;;;;;;;;;;;;5089999;28;19963;-67
2022/09/07 13:11:15;;;;;;;;;;;;;;;;;;5090695;28;19904;-67
2022/09/07 13:13:40;;;;;;;;;;;;;;;;;;5090151;28;19904;-67
2022/09/07 13:16:05;;;;;;;;;;;;;;;;;;5090794;28;19935;-67
2022/09/07 13:18:31;;;;;;;;;;;;;;;;;;5090337;28;20357;-67
2022/09/07 13:20:56;;;;;;;;;;;;;;;;;;5090257;28;20000;-67
2022/09/07 13:23:21;;;;;;;;;;;;;;;;;;5090896;28;19904;-66
2022/09/07 13:25:46;;;;;;;;;;;;;;;;;;5090196;28;19915;-67
2022/09/07 13:28:11;;;;;;;;;;;;;;;;;;5089841;28;20026;-67
2022/09/07 13:30:36;;;;;;;;;;;;;;;;;;5089933;28;19904;-67
2022/09/07 13:33:02;;;;;;;;;;;;;;;;;;5090231;28;20339;-67
2022/09/07 13:35:27;;;;;;;;;;;;;;;;;;5090326;28;20352;-67
2022/09/07 13:37:52;;;;;;;;;;;;;;;;;;5089519;28;19942;-67
2022/09/07 13:40:17;;;;;;;;;;;;;;;;;;5089376;28;19911;-66
2022/09/07 13:42:42;;;;;;;;;;;;;;;;;;5089996;28;19915;-67
2022/09/07 13:45:08;;;;;;;;;;;;;;;;;;5089687;28;19915;-66
2022/09/07 13:47:33;;;;;;;;;;;;;;;;;;5090609;28;19920;-67
2022/09/07 13:49:58;;;;;;;;;;;;;;;;;;5089364;28;20281;-67
2022/09/07 13:52:23;;;;;;;;;;;;;;;;;;5090568;28;19908;-67
2022/09/07 13:54:48;;;;;;;;;;;;;;;;;;5090106;28;19904;-67
2022/09/07 13:57:13;;;;;;;;;;;;;;;;;;5089245;28;19916;-67
2022/09/07 13:59:39;;;;;;;;;;;;;;;;;;5089157;28;20065;-67
2022/09/07 14:02:04;;;;;;;;;;;;;;;;;;5089657;28;19939;-67
2022/09/07 14:04:29;;;;;;;;;;;;;;;;;;5089934;28;19919;-67
2022/09/07 14:06:54;;;;;;;;;;;;;;;;;;5088918;28;20340;-67
2022/09/07 14:09:19;;;;;;;;;;;;;;;;;;5089335;28;20271;-66
2022/09/07 14:11:44;;;;;;;;;;;;;;;;;;5092390;28;19991;-67
2022/09/07 14:14:10;;;;;;;;;;;;;;;;;;5094942;28;20295;-67
2022/09/07 14:16:35;;;;;;;;;;;;;;;;;;5093638;28;20331;-67
2022/09/07 14:19:00;;;;;;;;;;;;;;;;;;5093691;28;20380;-67
2022/09/07 14:21:25;;;;;;;;;;;;;;;;;;5093469;28;19953;-67
2022/09/07 14:23:50;;;;;;;;;;;;;;;;;;5093752;28;19915;-67
2022/09/07 14:26:16;;;;;;;;;;;;;;;;;;5093737;28;19904;-67
2022/09/07 14:28:41;;;;;;;;;;;;;;;;;;5092820;28;20426;-67
2022/09/07 14:31:06;;;;;;;;;;;;;;;;;;5092798;28;20360;-67
2022/09/07 14:33:31;;;;;;;;;;;;;;;;;;5093365;28;19904;-67
2022/09/07 14:35:56;;;;;;;;;;;;;;;;;;5093318;28;19954;-67
2022/09/07 14:38:22;;;;;;;;;;;;;;;;;;5093010;28;19908;-67
2022/09/07 14:40:47;;;;;;;;;;;;;;;;;;5093538;28;19943;-67
2022/09/07 14:43:12;;;;;;;;;;;;;;;;;;5094035;28;20436;-67
2022/09/07 14:45:37;;;;;;;;;;;;;;;;;;5093765;28;20436;-67
2022/09/07 14:48:02;;;;;;;;;;;;;;;;;;5092614;28;20006;-66
2022/09/07 14:50:27;;;;;;;;;;;;;;;;;;5093195;28;19942;-67
2022/09/07 14:52:52;;;;;;;;;;;;;;;;;;5093885;28;19904;-66
2022/09/07 14:55:18;;;;;;;;;;;;;;;;;;5093421;28;19908;-67
2022/09/07 14:57:43;;;;;;;;;;;;;;;;;;5093077;28;20382;-67
2022/09/07 15:00:08;;;;;;;;;;;;;;;;;;5092571;28;19908;-66
2022/09/07 15:02:33;;;;;;;;;;;;;;;;;;5093691;28;19910;-66
2022/09/07 15:04:58;;;;;;;;;;;;;;;;;;5092798;28;19947;-67
2022/09/07 15:07:23;;;;;;;;;;;;;;;;;;5092051;28;19921;-67
2022/09/07 15:09:48;;;;;;;;;;;;;;;;;;5092388;28;19912;-67
2022/09/07 15:12:13;;;;;;;;;;;;;;;;;;5089590;28;19996;-67
2022/09/07 15:14:38;;;;;;;;;;;;;;;;;;5092659;28;19951;-67
2022/09/07 15:17:04;;;;;;;;;;;;;;;;;;5075997;28;19978;-67
2022/09/07 15:19:29;;;;;;;;;;;;;;;;;;5073991;28;19947;-67
2022/09/07 15:21:54;;;;;;;;;;;;;;;;;;5078781;28;20300;-67
2022/09/07 15:24:19;;;;;;;;;;;;;;;;;;5080749;28;20379;-66
2022/09/07 15:26:44;;;;;;;;;;;;;;;;;;5083293;28;19919;-66
2022/09/07 15:29:09;;;;;;;;;;;;;;;;;;5086246;28;19916;-67
2022/09/07 15:31:35;;;;;;;;;;;;;;;;;;5085416;28;19912;-67
2022/09/07 15:34:01;;;;;;;;;;;;;;;;;;5089163;28;19912;-67
2022/09/07 15:36:26;;;;;;;;;;;;;;;;;;5082915;28;19918;-67
2022/09/07 15:38:51;;;;;;;;;;;;;;;;;;5083537;28;20083;-66
2022/09/07 15:41:16;;;;;;;;;;;;;;;;;;5086864;28;19916;-66
2022/09/07 15:43:41;;;;;;;;;;;;;;;;;;5083844;28;19912;-66
2022/09/07 15:46:06;;;;;;;;;;;;;;;;;;5084100;28;19912;-66
2022/09/07 15:48:32;;;;;;;;;;;;;;;;;;5085008;28;20274;-66
2022/09/07 15:50:57;;;;;;;;;;;;;;;;;;5087729;28;19916;-66
2022/09/07 15:53:22;;;;;;;;;;;;;;;;;;5087674;28;19914;-66
2022/09/07 15:55:47;;;;;;;;;;;;;;;;;;5086487;28;19908;-67
2022/09/07 15:58:12;;;;;;;;;;;;;;;;;;5083282;28;20383;-67
2022/09/07 16:00:37;;;;;;;;;;;;;;;;;;5086146;28;19912;-66
2022/09/07 16:03:03;;;;;;;;;;;;;;;;;;5083424;28;19998;-67
2022/09/07 16:05:28;;;;;;;;;;;;;;;;;;5085651;28;20368;-66
2022/09/07 16:07:53;;;;;;;;;;;;;;;;;;5081099;28;19916;-66
2022/09/07 16:10:18;;;;;;;;;;;;;;;;;;5085263;28;19908;-66
2022/09/07 16:12:43;;;;;;;;;;;;;;;;;;5085177;28;19912;-67
2022/09/07 16:15:09;;;;;;;;;;;;;;;;;;5086385;28;20605;-67
2022/09/07 16:17:34;;;;;;;;;;;;;;;;;;5083848;28;20395;-67
2022/09/07 16:19:59;;;;;;;;;;;;;;;;;;5085966;28;20003;-67
2022/09/07 16:22:24;;;;;;;;;;;;;;;;;;5084934;28;19943;-67
2022/09/07 16:24:49;;;;;;;;;;;;;;;;;;5084610;28;19959;-67
2022/09/07 16:27:14;;;;;;;;;;;;;;;;;;5083711;28;19997;-67
2022/09/07 16:29:39;;;;;;;;;;;;;;;;;;5085192;28;19963;-67
2022/09/07 16:32:05;;;;;;;;;;;;;;;;;;5085485;28;20367;-67